createdAt,value
2018-06-29T00:01:14.641Z,102362.95
2018-06-29T00:03:44.376Z,102361.48
2018-06-29T00:06:13.909Z,102359.77
2018-06-29T00:08:43.113Z,102360.23
2018-06-29T00:11:13.208Z,102358.50
2018-06-29T00:13:42.685Z,102363.83
2018-06-29T00:16:12.493Z,102371.12
2018-06-29T00:18:42.564Z,102374.92
2018-06-29T00:21:12.147Z,102376.58
2018-06-29T00:23:43.310Z,102374.55
2018-06-29T00:26:12.932Z,102377.64
2018-06-29T00:28:42.408Z,102376.36
2018-06-29T00:31:12.390Z,102366.72
2018-06-29T00:33:41.977Z,102370.48
2018-06-29T00:36:11.496Z,102361.66
2018-06-29T00:38:41.211Z,102364.30
2018-06-29T00:41:11.014Z,102356.24
2018-06-29T00:43:41.249Z,102351.23
2018-06-29T00:46:10.789Z,102357.13
2018-06-29T00:48:40.495Z,102350.17
2018-06-29T00:51:10.031Z,102356.08
2018-06-29T00:53:40.580Z,102357.21
2018-06-29T00:56:10.638Z,102355.90
2018-06-29T00:58:40.808Z,102356.95
2018-06-29T01:01:10.338Z,102360.15
2018-06-29T01:03:40.544Z,102367.38
2018-06-29T01:06:10.136Z,102370.09
2018-06-29T01:08:39.678Z,102362.91
2018-06-29T01:11:09.240Z,102366.97
2018-06-29T01:13:38.714Z,102357.28
2018-06-29T01:16:08.711Z,102355.32
2018-06-29T01:18:38.654Z,102365.04
2018-06-29T01:21:08.126Z,102365.44
2018-06-29T01:23:37.700Z,102372.46
2018-06-29T01:26:07.324Z,102365.14
2018-06-29T01:28:36.894Z,102362.65
2018-06-29T01:31:06.373Z,102363.84
2018-06-29T01:33:35.858Z,102366.44
2018-06-29T01:36:05.344Z,102359.11
2018-06-29T01:38:34.929Z,102357.98
2018-06-29T01:41:04.418Z,102354.22
2018-06-29T01:43:33.912Z,102361.52
2018-06-29T01:46:03.426Z,102358.98
2018-06-29T01:48:33.330Z,102358.90
2018-06-29T01:51:02.900Z,102358.67
2018-06-29T01:53:32.381Z,102355.36
2018-06-29T01:56:02.334Z,102347.95
2018-06-29T01:58:32.326Z,102353.21
2018-06-29T02:01:01.839Z,102344.19
2018-06-29T02:03:31.349Z,102334.33
2018-06-29T02:06:00.941Z,102338.91
2018-06-29T02:08:30.701Z,102331.41
2018-06-29T02:11:01.594Z,102334.50
2018-06-29T02:13:31.117Z,102335.45
2018-06-29T02:16:00.744Z,102337.17
2018-06-29T02:18:31.117Z,102331.53
2018-06-29T02:21:01.270Z,102328.69
2018-06-29T02:23:31.487Z,102335.59
2018-06-29T02:26:01.009Z,102326.58
2018-06-29T02:28:30.654Z,102329.93
2018-06-29T02:31:00.236Z,102328.98
2018-06-29T02:33:29.851Z,102315.55
2018-06-29T02:36:00.075Z,102316.08
2018-06-29T02:38:29.646Z,102317.78
2018-06-29T02:40:59.278Z,102318.30
2018-06-29T02:43:28.890Z,102322.20
2018-06-29T02:45:58.926Z,102327.34
2018-06-29T02:48:28.529Z,102326.86
2018-06-29T02:50:58.615Z,102330.34
2018-06-29T02:53:28.352Z,102327.11
2018-06-29T02:55:57.858Z,102330.80
2018-06-29T02:58:27.409Z,102339.45
2018-06-29T03:00:57.070Z,102334.86
2018-06-29T03:03:26.561Z,102337.39
2018-06-29T03:05:56.107Z,102335.59
2018-06-29T03:08:25.597Z,102335.68
2018-06-29T03:10:55.322Z,102340.57
2018-06-29T03:13:24.865Z,102334.94
2018-06-29T03:15:54.310Z,102343.95
2018-06-29T03:18:24.459Z,102334.24
2018-06-29T03:20:54.065Z,102335.37
2018-06-29T03:23:24.383Z,102341.02
2018-06-29T03:25:53.912Z,102342.02
2018-06-29T03:28:23.393Z,102343.30
2018-06-29T03:30:52.873Z,102344.66
2018-06-29T03:33:22.381Z,102346.02
2018-06-29T03:35:51.999Z,102333.38
2018-06-29T03:38:21.561Z,102338.35
2018-06-29T03:40:51.068Z,102330.52
2018-06-29T03:43:20.568Z,102326.58
2018-06-29T03:45:50.164Z,102325.83
2018-06-29T03:48:19.660Z,102322.52
2018-06-29T03:50:49.139Z,102323.12
2018-06-29T03:53:18.655Z,102327.80
2018-06-29T03:55:48.149Z,102327.47
2018-06-29T03:58:17.685Z,102327.95
2018-06-29T04:00:47.187Z,102325.44
2018-06-29T04:03:16.990Z,102326.34
2018-06-29T04:05:47.234Z,102328.91
2018-06-29T04:08:18.453Z,102335.51
2018-06-29T04:10:52.231Z,102326.92
2018-06-29T04:13:25.735Z,102325.30
2018-06-29T04:15:55.279Z,102329.67
2018-06-29T04:18:25.359Z,102322.41
2018-06-29T04:20:55.005Z,102329.27
2018-06-29T04:23:24.833Z,102326.73
2018-06-29T04:25:54.297Z,102331.73
2018-06-29T04:28:23.881Z,102328.98
2018-06-29T04:30:53.843Z,102323.53
2018-06-29T04:33:23.327Z,102330.86
2018-06-29T04:35:52.874Z,102328.45
2018-06-29T04:38:22.578Z,102325.14
2018-06-29T04:40:52.189Z,102326.11
2018-06-29T04:43:21.759Z,102329.88
2018-06-29T04:45:52.789Z,102325.14
2018-06-29T04:48:22.246Z,102328.69
2018-06-29T04:50:51.754Z,102329.71
2018-06-29T04:53:21.250Z,102328.06
2018-06-29T04:55:51.244Z,102335.53
2018-06-29T04:58:20.721Z,102322.75
2018-06-29T05:00:50.674Z,102327.61
2018-06-29T05:03:20.323Z,102323.58
2018-06-29T05:05:50.737Z,102330.38
2018-06-29T05:08:20.660Z,102329.80
2018-06-29T05:10:50.219Z,102326.73
2018-06-29T05:13:19.720Z,102326.28
2018-06-29T05:15:49.818Z,102320.30
2018-06-29T05:18:19.841Z,102316.86
2018-06-29T05:20:50.410Z,102323.67
2018-06-29T05:23:20.057Z,102320.64
2018-06-29T05:25:49.556Z,102325.09
2018-06-29T05:28:19.159Z,102327.70
2018-06-29T05:30:48.657Z,102322.70
2018-06-29T05:33:18.915Z,102319.06
2018-06-29T05:35:49.404Z,102320.42
2018-06-29T05:38:19.441Z,102324.03
2018-06-29T05:40:49.616Z,102324.97
2018-06-29T05:43:19.139Z,102315.43
2018-06-29T05:45:49.137Z,102318.86
2018-06-29T05:48:18.769Z,102310.48
2018-06-29T05:50:49.009Z,102311.20
2018-06-29T05:53:19.209Z,102315.47
2018-06-29T05:55:49.496Z,102315.66
2018-06-29T05:58:19.009Z,102308.02
2018-06-29T06:00:49.380Z,102310.19
2018-06-29T06:03:19.048Z,102312.68
2018-06-29T06:05:48.876Z,102311.87
2018-06-29T06:08:19.210Z,102313.51
2018-06-29T06:10:48.697Z,102312.41
2018-06-29T06:13:18.232Z,102312.97
2018-06-29T06:15:47.718Z,102317.36
2018-06-29T06:18:17.781Z,102310.50
2018-06-29T06:20:47.430Z,102305.29
2018-06-29T06:23:19.681Z,102316.80
2018-06-29T06:25:49.490Z,102317.34
2018-06-29T06:28:19.437Z,102314.02
2018-06-29T06:30:48.940Z,102313.12
2018-06-29T06:33:18.455Z,102308.59
2018-06-29T06:35:47.984Z,102308.00
2018-06-29T06:38:17.474Z,102309.36
2018-06-29T06:40:47.020Z,102312.52
2018-06-29T06:43:16.545Z,102313.95
2018-06-29T06:45:46.068Z,102313.90
2018-06-29T06:48:15.644Z,102311.72
2018-06-29T06:50:45.231Z,102305.22
2018-06-29T06:53:14.724Z,102312.61
2018-06-29T06:55:45.656Z,102299.19
2018-06-29T06:58:15.249Z,102297.07
2018-06-29T07:00:46.339Z,102295.34
2018-06-29T07:03:15.854Z,102292.00
2018-06-29T07:05:45.385Z,102291.84
2018-06-29T07:08:14.968Z,102288.09
2018-06-29T07:10:44.524Z,102289.08
2018-06-29T07:13:14.066Z,102286.66
2018-06-29T07:15:43.606Z,102285.18
2018-06-29T07:18:13.298Z,102280.13
2018-06-29T07:20:43.627Z,102277.60
2018-06-29T07:23:16.704Z,102268.17
2018-06-29T07:25:46.143Z,102266.10
2018-06-29T07:28:15.603Z,102261.08
2018-06-29T07:30:45.674Z,102252.75
2018-06-29T07:33:15.271Z,102251.33
2018-06-29T07:35:46.576Z,102252.91
2018-06-29T07:38:15.807Z,102252.53
2018-06-29T07:40:45.552Z,102245.20
2018-06-29T07:43:16.701Z,102245.92
2018-06-29T07:45:46.430Z,102243.52
2018-06-29T07:48:17.101Z,102240.36
2018-06-29T07:50:46.652Z,102247.66
2018-06-29T07:53:16.308Z,102246.69
2018-06-29T07:55:46.397Z,102243.16
2018-06-29T07:58:16.552Z,102243.82
2018-06-29T08:00:46.009Z,102240.42
2018-06-29T08:03:15.768Z,102239.98
2018-06-29T08:05:45.576Z,102234.80
2018-06-29T08:08:15.344Z,102232.38
2018-06-29T08:10:45.632Z,102226.26
2018-06-29T08:13:15.609Z,102225.84
2018-06-29T08:15:45.063Z,102226.12
2018-06-29T08:18:14.612Z,102217.50
2018-06-29T08:20:44.275Z,102226.44
2018-06-29T08:23:13.847Z,102219.45
2018-06-29T08:25:43.354Z,102216.95
2018-06-29T08:28:13.432Z,102217.25
2018-06-29T08:30:42.970Z,102213.36
2018-06-29T08:33:12.430Z,102215.83
2018-06-29T08:35:41.910Z,102218.38
2018-06-29T08:38:11.647Z,102215.06
2018-06-29T08:40:41.206Z,102215.70
2018-06-29T08:43:10.686Z,102211.12
2018-06-29T08:45:40.377Z,102211.06
2018-06-29T08:48:09.945Z,102202.66
2018-06-29T08:50:40.612Z,102200.69
2018-06-29T08:53:10.729Z,102195.34
2018-06-29T08:55:40.176Z,102200.55
2018-06-29T08:58:10.349Z,102202.44
2018-06-29T09:00:39.929Z,102200.22
2018-06-29T09:03:09.414Z,102193.67
2018-06-29T09:05:38.884Z,102197.53
2018-06-29T09:08:09.239Z,102199.47
2018-06-29T09:10:39.769Z,102197.14
2018-06-29T09:13:09.770Z,102198.83
2018-06-29T09:15:39.253Z,102195.00
2018-06-29T09:18:08.729Z,102198.88
2018-06-29T09:20:39.423Z,102194.34
2018-06-29T09:23:09.195Z,102193.84
2018-06-29T09:25:38.710Z,102189.55
2018-06-29T09:28:08.733Z,102192.98
2018-06-29T09:30:38.249Z,102191.19
2018-06-29T09:33:07.867Z,102194.16
2018-06-29T09:35:38.310Z,102178.18
2018-06-29T09:38:08.493Z,102179.53
2018-06-29T09:40:38.022Z,102180.14
2018-06-29T09:43:08.215Z,102176.09
2018-06-29T09:45:38.159Z,102183.87
2018-06-29T09:48:07.845Z,102179.02
2018-06-29T09:50:37.174Z,102177.30
2018-06-29T09:53:07.222Z,102171.84
2018-06-29T09:55:37.007Z,102167.12
2018-06-29T09:58:07.139Z,102168.87
2018-06-29T10:00:36.681Z,102165.77
2018-06-29T10:03:07.125Z,102171.11
2018-06-29T10:05:36.661Z,102167.93
2018-06-29T10:08:06.174Z,102162.20
2018-06-29T10:10:35.656Z,102163.25
2018-06-29T10:13:05.642Z,102162.29
2018-06-29T10:15:35.785Z,102158.43
2018-06-29T10:18:05.289Z,102157.91
2018-06-29T10:20:34.813Z,102150.45
2018-06-29T10:23:04.409Z,102153.48
2018-06-29T10:25:34.135Z,102150.52
2018-06-29T10:28:07.641Z,102157.43
2018-06-29T10:30:37.043Z,102152.91
2018-06-29T10:33:07.244Z,102152.48
2018-06-29T10:35:37.048Z,102156.44
2018-06-29T10:38:06.836Z,102153.09
2018-06-29T10:40:36.474Z,102149.48
2018-06-29T10:43:05.990Z,102148.05
2018-06-29T10:45:35.521Z,102143.09
2018-06-29T10:48:05.190Z,102144.26
2018-06-29T10:50:34.840Z,102143.91
2018-06-29T10:53:04.347Z,102154.22
2018-06-29T10:55:33.832Z,102147.87
2018-06-29T10:58:03.347Z,102143.19
2018-06-29T11:00:33.405Z,102140.49
2018-06-29T11:03:02.962Z,102137.27
2018-06-29T11:05:32.491Z,102139.95
2018-06-29T11:08:01.999Z,102135.53
2018-06-29T11:10:34.026Z,102132.48
2018-06-29T11:13:04.743Z,102130.04
2018-06-29T11:15:34.622Z,102121.92
2018-06-29T11:18:04.703Z,102120.63
2018-06-29T11:20:34.839Z,102119.72
2018-06-29T11:23:04.313Z,102112.67
2018-06-29T11:25:33.875Z,102117.66
2018-06-29T11:28:03.419Z,102117.55
2018-06-29T11:30:32.971Z,102116.04
2018-06-29T11:33:02.639Z,102115.91
2018-06-29T11:35:32.321Z,102113.80
2018-06-29T11:38:02.471Z,102099.17
2018-06-29T11:40:32.263Z,102107.91
2018-06-29T11:43:01.960Z,102107.99
2018-06-29T11:45:31.512Z,102112.86
2018-06-29T11:48:01.652Z,102107.06
2018-06-29T11:50:32.459Z,102112.26
2018-06-29T11:53:01.981Z,102115.47
2018-06-29T11:55:31.830Z,102108.96
2018-06-29T11:58:01.324Z,102112.42
2018-06-29T12:00:30.774Z,102107.61
2018-06-29T12:03:00.541Z,102112.92
2018-06-29T12:05:30.185Z,102107.34
2018-06-29T12:07:59.723Z,102106.95
2018-06-29T12:10:33.981Z,102104.02
2018-06-29T12:13:03.742Z,102103.14
2018-06-29T12:15:34.204Z,102098.15
2018-06-29T12:18:03.781Z,102085.25
2018-06-29T12:20:36.597Z,102095.09
2018-06-29T12:23:06.950Z,102094.14
2018-06-29T12:25:36.525Z,102089.70
2018-06-29T12:28:06.604Z,102089.48
2018-06-29T12:30:36.261Z,102091.16
2018-06-29T12:33:12.206Z,102089.81
2018-06-29T12:35:42.849Z,102076.27
2018-06-29T12:38:12.981Z,102080.93
2018-06-29T12:40:42.921Z,102074.34
2018-06-29T12:43:13.575Z,102073.02
2018-06-29T12:45:43.699Z,102078.42
2018-06-29T12:48:13.670Z,102068.77
2018-06-29T12:50:44.047Z,102061.83
2018-06-29T12:53:13.712Z,102068.66
2018-06-29T12:55:43.316Z,102055.71
2018-06-29T12:58:12.659Z,102051.56
2018-06-29T13:00:43.052Z,102057.04
2018-06-29T13:03:13.568Z,102052.78
2018-06-29T13:05:43.790Z,102051.36
2018-06-29T13:08:13.201Z,102051.98
2018-06-29T13:10:42.677Z,102046.70
2018-06-29T13:13:12.372Z,102044.68
2018-06-29T13:15:41.651Z,102044.86
2018-06-29T13:18:12.251Z,102047.22
2018-06-29T13:20:41.843Z,102036.42
2018-06-29T13:23:11.306Z,102034.86
2018-06-29T13:25:41.039Z,102035.85
2018-06-29T13:28:10.545Z,102033.23
2018-06-29T13:30:41.071Z,102040.08
2018-06-29T13:33:10.573Z,102032.16
2018-06-29T13:35:40.112Z,102025.81
2018-06-29T13:38:09.920Z,102029.25
2018-06-29T13:40:39.539Z,102019.22
2018-06-29T13:43:10.309Z,102024.66
2018-06-29T13:45:40.217Z,102025.30
2018-06-29T13:48:10.699Z,102022.04
2018-06-29T13:50:40.182Z,102016.66
2018-06-29T13:53:11.813Z,102017.14
2018-06-29T13:55:41.539Z,102009.47
2018-06-29T13:58:11.053Z,102016.83
2018-06-29T14:00:41.211Z,102017.70
2018-06-29T14:03:10.894Z,102011.52
2018-06-29T14:05:41.058Z,102019.67
2018-06-29T14:08:10.546Z,102011.66
2018-06-29T14:10:40.063Z,102010.94
2018-06-29T14:13:10.115Z,102000.14
2018-06-29T14:15:39.974Z,101998.34
2018-06-29T14:18:09.507Z,101996.33
2018-06-29T14:20:39.356Z,102001.85
2018-06-29T14:23:08.893Z,101998.25
2018-06-29T14:25:39.020Z,102005.12
2018-06-29T14:28:09.557Z,102001.98
2018-06-29T14:30:39.279Z,101994.63
2018-06-29T14:33:08.887Z,101989.37
2018-06-29T14:35:38.941Z,101989.95
2018-06-29T14:38:08.436Z,101987.86
2018-06-29T14:40:37.953Z,101996.30
2018-06-29T14:43:08.009Z,101986.94
2018-06-29T14:45:37.822Z,101986.89
2018-06-29T14:48:08.198Z,101991.72
2018-06-29T14:50:38.406Z,101980.94
2018-06-29T14:53:08.114Z,101987.94
2018-06-29T14:55:43.799Z,101982.56
2018-06-29T14:58:24.234Z,101985.31
2018-06-29T15:00:54.545Z,101979.70
2018-06-29T15:03:24.028Z,101978.34
2018-06-29T15:05:53.544Z,101980.47
2018-06-29T15:08:23.128Z,101980.16
2018-06-29T15:10:52.987Z,101973.06
2018-06-29T15:13:23.249Z,101967.08
2018-06-29T15:15:54.217Z,101971.52
2018-06-29T15:18:23.724Z,101975.67
2018-06-29T15:20:53.291Z,101973.05
2018-06-29T15:23:22.781Z,101989.20
2018-06-29T15:25:53.353Z,101977.59
2018-06-29T15:28:22.921Z,101976.08
2018-06-29T15:30:52.462Z,101971.88
2018-06-29T15:33:22.695Z,101970.25
2018-06-29T15:35:52.483Z,101971.22
2018-06-29T15:38:22.024Z,101974.66
2018-06-29T15:40:52.090Z,101967.95
2018-06-29T15:43:21.598Z,101968.92
2018-06-29T15:45:51.127Z,101960.42
2018-06-29T15:48:20.691Z,101964.08
2018-06-29T15:50:50.181Z,101972.30
2018-06-29T15:53:19.644Z,101960.34
2018-06-29T15:55:49.824Z,101959.39
2018-06-29T15:58:19.338Z,101952.25
2018-06-29T16:00:48.835Z,101953.19
2018-06-29T16:03:18.385Z,101943.39
2018-06-29T16:05:47.843Z,101947.46
2018-06-29T16:08:17.328Z,101947.98
2018-06-29T16:10:47.281Z,101942.47
2018-06-29T16:13:17.039Z,101940.78
2018-06-29T16:15:47.240Z,101931.87
2018-06-29T16:18:16.694Z,101939.14
2018-06-29T16:20:46.247Z,101931.65
2018-06-29T16:23:15.721Z,101938.45
2018-06-29T16:25:45.226Z,101922.83
2018-06-29T16:28:15.111Z,101921.12
2018-06-29T16:30:44.612Z,101920.89
2018-06-29T16:33:14.130Z,101916.98
2018-06-29T16:35:43.607Z,101928.95
2018-06-29T16:38:13.100Z,101932.77
2018-06-29T16:40:42.581Z,101927.11
2018-06-29T16:43:12.138Z,101927.83
2018-06-29T16:45:41.699Z,101925.50
2018-06-29T16:48:12.886Z,101925.16
2018-06-29T16:50:43.528Z,101919.97
2018-06-29T16:53:13.224Z,101924.03
2018-06-29T16:55:42.642Z,101912.34
2018-06-29T16:58:12.143Z,101923.39
2018-06-29T17:00:41.632Z,101923.98
2018-06-29T17:03:12.170Z,101919.61
2018-06-29T17:05:41.992Z,101917.70
2018-06-29T17:08:10.922Z,101918.31
2018-06-29T17:10:40.415Z,101913.52
2018-06-29T17:13:09.894Z,101920.36
2018-06-29T17:15:40.516Z,101923.02
2018-06-29T17:18:10.092Z,101930.12
2018-06-29T17:20:39.909Z,101928.53
2018-06-29T17:23:09.132Z,101921.99
2018-06-29T17:25:39.472Z,101929.79
2018-06-29T17:28:09.037Z,101925.47
2018-06-29T17:30:39.260Z,101925.44
2018-06-29T17:33:09.121Z,101918.98
2018-06-29T17:35:38.802Z,101912.93
2018-06-29T17:38:08.191Z,101920.16
2018-06-29T17:40:37.802Z,101923.15
2018-06-29T17:43:07.470Z,101919.37
2018-06-29T17:45:36.992Z,101928.71
2018-06-29T17:48:06.498Z,101926.20
2018-06-29T17:50:36.026Z,101926.14
2018-06-29T17:53:05.833Z,101938.30
2018-06-29T17:55:35.347Z,101937.36
2018-06-29T17:58:05.330Z,101940.81
2018-06-29T18:00:35.313Z,101941.71
2018-06-29T18:03:05.407Z,101939.80
2018-06-29T18:05:35.900Z,101941.97
2018-06-29T18:08:05.380Z,101941.68
2018-06-29T18:10:34.859Z,101929.66
2018-06-29T18:13:04.497Z,101936.59
2018-06-29T18:15:34.659Z,101934.16
2018-06-29T18:18:04.323Z,101931.27
2018-06-29T18:20:34.311Z,101940.16
2018-06-29T18:23:04.110Z,101935.13
2018-06-29T18:25:33.651Z,101931.98
2018-06-29T18:28:03.739Z,101934.55
2018-06-29T18:30:33.753Z,101932.92
2018-06-29T18:33:04.595Z,101938.77
2018-06-29T18:35:34.707Z,101924.69
2018-06-29T18:38:04.789Z,101925.92
2018-06-29T18:40:34.404Z,101930.88
2018-06-29T18:43:08.310Z,101924.77
2018-06-29T18:45:38.173Z,101929.04
2018-06-29T18:48:09.013Z,101923.37
2018-06-29T18:50:38.858Z,101933.56
2018-06-29T18:53:08.507Z,101936.27
2018-06-29T18:55:37.970Z,101939.67
2018-06-29T18:58:07.854Z,101945.54
2018-06-29T19:00:37.325Z,101944.70
2018-06-29T19:03:06.750Z,101943.45
2018-06-29T19:05:36.288Z,101944.12
2018-06-29T19:08:05.843Z,101939.58
2018-06-29T19:10:35.386Z,101940.86
2018-06-29T19:13:04.910Z,101941.02
2018-06-29T19:15:41.071Z,101952.13
2018-06-29T19:18:10.542Z,101944.19
2018-06-29T19:20:40.084Z,101937.36
2018-06-29T19:23:09.607Z,101948.31
2018-06-29T19:25:39.114Z,101946.66
2018-06-29T19:28:08.698Z,101940.37
2018-06-29T19:30:38.276Z,101943.38
2018-06-29T19:33:08.130Z,101945.77
2018-06-29T19:35:37.742Z,101941.02
2018-06-29T19:38:07.526Z,101938.12
2018-06-29T19:40:37.300Z,101937.94
2018-06-29T19:43:07.005Z,101941.13
2018-06-29T19:45:36.716Z,101942.11
2018-06-29T19:48:07.847Z,101943.69
2018-06-29T19:50:37.434Z,101947.93
2018-06-29T19:53:07.966Z,101933.03
2018-06-29T19:55:37.739Z,101938.91
2018-06-29T19:58:07.420Z,101931.21
2018-06-29T20:00:38.392Z,101942.81
2018-06-29T20:03:08.093Z,101945.53
2018-06-29T20:05:37.694Z,101952.23
2018-06-29T20:08:07.257Z,101957.52
2018-06-29T20:10:37.031Z,101958.72
2018-06-29T20:13:06.865Z,101959.79
2018-06-29T20:15:37.926Z,101965.97
2018-06-29T20:18:08.080Z,101959.52
2018-06-29T20:20:39.542Z,101967.78
2018-06-29T20:23:09.072Z,101970.70
2018-06-29T20:25:40.284Z,101968.45
2018-06-29T20:28:10.375Z,101968.30
2018-06-29T20:30:39.995Z,101970.05
2018-06-29T20:33:09.697Z,101970.83
2018-06-29T20:35:39.135Z,101978.87
2018-06-29T20:38:09.605Z,101977.90
2018-06-29T20:40:39.676Z,101981.34
2018-06-29T20:43:10.554Z,101974.66
2018-06-29T20:45:40.585Z,101973.77
2018-06-29T20:48:10.815Z,101971.72
2018-06-29T20:50:40.367Z,101972.67
2018-06-29T20:53:10.132Z,101978.39
2018-06-29T20:55:40.337Z,101982.13
2018-06-29T20:58:09.896Z,101980.34
2018-06-29T21:00:39.414Z,101979.76
2018-06-29T21:03:08.910Z,101980.29
2018-06-29T21:05:38.396Z,101987.77
2018-06-29T21:08:08.258Z,101989.55
2018-06-29T21:10:37.807Z,101979.17
2018-06-29T21:13:07.454Z,101978.03
2018-06-29T21:15:37.096Z,101973.95
2018-06-29T21:18:06.654Z,101979.70
2018-06-29T21:20:36.163Z,101987.91
2018-06-29T21:23:05.700Z,101984.52
2018-06-29T21:25:35.196Z,101978.69
2018-06-29T21:28:04.664Z,101974.42
2018-06-29T21:30:34.229Z,101971.35
2018-06-29T21:33:03.756Z,101980.85
2018-06-29T21:35:33.208Z,101973.53
2018-06-29T21:38:02.680Z,101974.30
2018-06-29T21:40:32.515Z,101971.95
2018-06-29T21:43:02.021Z,101969.77
2018-06-29T21:45:31.492Z,101970.89
2018-06-29T21:48:01.084Z,101967.97
2018-06-29T21:50:30.597Z,101961.75
2018-06-29T21:53:00.304Z,101966.38
2018-06-29T21:55:30.512Z,101963.42
2018-06-29T21:58:00.080Z,101955.11
2018-06-29T22:00:34.997Z,101963.78
2018-06-29T22:03:10.022Z,101957.26
2018-06-29T22:05:40.798Z,101957.44
2018-06-29T22:08:10.828Z,101957.55
2018-06-29T22:10:41.156Z,101953.42
2018-06-29T22:13:10.671Z,101953.89
2018-06-29T22:15:40.211Z,101952.69
2018-06-29T22:18:09.849Z,101954.72
2018-06-29T22:20:39.448Z,101952.30
2018-06-29T22:23:08.971Z,101956.08
2018-06-29T22:25:38.573Z,101956.88
2018-06-29T22:28:08.186Z,101959.29
2018-06-29T22:30:38.157Z,101958.47
2018-06-29T22:33:07.722Z,101962.17
2018-06-29T22:35:37.245Z,101957.30
2018-06-29T22:38:06.821Z,101955.17
2018-06-29T22:40:36.345Z,101951.41
2018-06-29T22:43:05.822Z,101948.98
2018-06-29T22:45:35.310Z,101945.69
2018-06-29T22:48:04.926Z,101945.86
2018-06-29T22:50:34.367Z,101943.91
2018-06-29T22:53:03.937Z,101943.08
2018-06-29T22:55:33.438Z,101939.19
2018-06-29T22:58:02.862Z,101941.66
2018-06-29T23:00:32.396Z,101944.38
2018-06-29T23:03:09.828Z,101938.13
2018-06-29T23:05:39.285Z,101942.55
2018-06-29T23:08:10.288Z,101939.61
2018-06-29T23:10:40.220Z,101935.02
2018-06-29T23:13:10.220Z,101937.60
2018-06-29T23:15:39.404Z,101933.50
2018-06-29T23:18:08.924Z,101933.36
2018-06-29T23:20:38.390Z,101929.13
2018-06-29T23:23:08.021Z,101933.48
2018-06-29T23:25:37.503Z,101929.52
2018-06-29T23:28:07.034Z,101930.52
2018-06-29T23:30:36.509Z,101931.14
2018-06-29T23:33:06.331Z,101929.55
2018-06-29T23:35:35.822Z,101929.61
2018-06-29T23:38:05.424Z,101931.50
2018-06-29T23:40:35.029Z,101925.90
2018-06-29T23:43:04.668Z,101922.13
2018-06-29T23:45:34.878Z,101930.05
2018-06-29T23:48:04.478Z,101921.68
2018-06-29T23:50:34.038Z,101916.31
2018-06-29T23:53:03.982Z,101918.91
2018-06-29T23:55:33.828Z,101912.54
2018-06-29T23:58:03.327Z,101913.20
